createdAt,value
2022-09-30T00:01:26.006Z,27.05
2022-09-30T00:03:53.861Z,26.65
2022-09-30T00:06:21.154Z,23.05
2022-09-30T00:08:48.443Z,34.55
2022-09-30T00:11:18.503Z,35.58
2022-09-30T00:13:47.249Z,13.77
2022-09-30T00:16:15.662Z,9.93
2022-09-30T00:18:43.584Z,11.40
2022-09-30T00:21:12.463Z,13.63
2022-09-30T00:23:40.314Z,15.63
2022-09-30T00:26:12.224Z,15.18
2022-09-30T00:28:40.315Z,13.02
2022-09-30T00:31:10.968Z,12.23
2022-09-30T00:33:37.966Z,21.20
2022-09-30T00:36:05.341Z,11.80
2022-09-30T00:38:32.587Z,7.68
2022-09-30T00:41:01.184Z,10.25
2022-09-30T00:43:53.409Z,12.32
2022-09-30T00:46:40.985Z,12.80
2022-09-30T00:49:17.442Z,31.80
2022-09-30T00:51:51.729Z,67.10
2022-09-30T00:54:22.175Z,72.72
2022-09-30T00:56:56.033Z,40.75
2022-09-30T00:59:26.287Z,46.13
2022-09-30T01:01:54.092Z,53.20
2022-09-30T01:04:22.831Z,49.05
2022-09-30T01:06:50.419Z,157.05
2022-09-30T01:09:18.503Z,96.07
2022-09-30T01:11:46.279Z,43.25
2022-09-30T01:14:19.387Z,12.60
2022-09-30T01:17:11.063Z,16.73
2022-09-30T01:19:58.249Z,41.75
2022-09-30T01:22:31.018Z,8.60
2022-09-30T01:25:04.401Z,7.60
2022-09-30T01:27:50.056Z,12.88
2022-09-30T01:30:21.403Z,9.77
2022-09-30T01:33:23.390Z,12.50
2022-09-30T01:35:59.286Z,6.95
2022-09-30T01:38:29.477Z,8.27
2022-09-30T01:41:05.780Z,10.60
2022-09-30T01:43:47.871Z,11.50
2022-09-30T01:46:34.157Z,8.93
2022-09-30T01:49:12.771Z,8.68
2022-09-30T01:52:03.191Z,15.77
2022-09-30T01:54:39.256Z,19.40
2022-09-30T01:57:11.418Z,30.35
2022-09-30T01:59:46.423Z,30.02
2022-09-30T02:02:19.736Z,23.88
2022-09-30T02:05:03.831Z,19.55
2022-09-30T02:07:35.828Z,21.58
2022-09-30T02:10:10.511Z,16.55
2022-09-30T02:12:42.041Z,24.50
2022-09-30T02:15:12.532Z,20.67
2022-09-30T02:17:48.984Z,12.77
2022-09-30T02:20:21.003Z,22.30
2022-09-30T02:22:50.708Z,19.20
2022-09-30T02:25:23.493Z,17.38
2022-09-30T02:27:57.266Z,12.50
2022-09-30T02:30:24.347Z,8.48
2022-09-30T02:32:56.790Z,8.00
2022-09-30T02:35:45.680Z,7.93
2022-09-30T02:38:19.373Z,13.82
2022-09-30T02:40:52.618Z,7.53
2022-09-30T02:43:20.758Z,8.25
2022-09-30T02:46:25.195Z,14.70
2022-09-30T02:48:58.316Z,7.47
2022-09-30T02:51:49.487Z,16.02
2022-09-30T02:54:36.422Z,6.10
2022-09-30T02:57:41.750Z,10.95
2022-09-30T03:00:12.942Z,7.90
2022-09-30T03:02:41.153Z,10.73
2022-09-30T03:05:09.835Z,12.60
2022-09-30T03:07:37.939Z,12.50
2022-09-30T03:10:15.553Z,10.77
2022-09-30T03:12:48.595Z,5.70
2022-09-30T03:15:42.872Z,8.07
2022-09-30T03:18:31.923Z,6.95
2022-09-30T03:21:20.537Z,6.40
2022-09-30T03:24:10.387Z,7.55
2022-09-30T03:26:41.777Z,5.75
2022-09-30T03:29:18.009Z,7.53
2022-09-30T03:32:00.882Z,9.70
2022-09-30T03:34:33.289Z,5.47
2022-09-30T03:37:26.101Z,198.15
2022-09-30T03:39:55.316Z,112.25
2022-09-30T03:42:38.688Z,30.35
2022-09-30T03:45:37.183Z,33.17
2022-09-30T03:48:07.465Z,35.83
2022-09-30T03:50:36.560Z,29.65
2022-09-30T03:53:04.432Z,13.38
2022-09-30T03:55:33.484Z,11.27
2022-09-30T03:58:00.550Z,6.85
2022-09-30T04:00:27.503Z,242.85
2022-09-30T04:02:57.760Z,318.13
2022-09-30T04:05:25.399Z,31.58
2022-09-30T04:07:52.521Z,16.25
2022-09-30T04:10:19.578Z,36.75
2022-09-30T04:12:46.622Z,22.00
2022-09-30T04:15:13.419Z,20.40
2022-09-30T04:17:40.289Z,18.58
2022-09-30T04:20:07.545Z,15.73
2022-09-30T04:22:34.484Z,13.00
2022-09-30T04:25:01.282Z,17.98
2022-09-30T04:27:30.266Z,7.05
2022-09-30T04:29:57.067Z,7.53
2022-09-30T04:32:25.701Z,16.45
2022-09-30T04:34:54.182Z,9.07
2022-09-30T04:37:21.345Z,7.72
2022-09-30T04:39:48.124Z,9.02
2022-09-30T04:42:15.203Z,10.65
2022-09-30T04:44:42.311Z,14.00
2022-09-30T04:47:09.292Z,8.98
2022-09-30T04:49:36.412Z,11.13
2022-09-30T04:52:03.321Z,8.73
2022-09-30T04:54:30.148Z,12.00
2022-09-30T04:56:57.220Z,11.85
2022-09-30T04:59:24.246Z,12.55
2022-09-30T05:01:51.217Z,19.73
2022-09-30T05:04:18.283Z,47.08
2022-09-30T05:06:45.121Z,118.18
2022-09-30T05:09:12.099Z,129.82
2022-09-30T05:11:40.838Z,141.25
2022-09-30T05:14:09.222Z,126.10
2022-09-30T05:16:36.280Z,92.10
2022-09-30T05:19:04.003Z,78.20
2022-09-30T05:21:30.880Z,93.50
2022-09-30T05:23:58.543Z,47.35
2022-09-30T05:26:25.717Z,36.45
2022-09-30T05:28:52.683Z,50.72
2022-09-30T05:31:21.028Z,30.92
2022-09-30T05:33:48.659Z,38.88
2022-09-30T05:36:16.611Z,21.83
2022-09-30T05:38:43.514Z,20.58
2022-09-30T05:41:12.669Z,20.33
2022-09-30T05:43:40.672Z,16.92
2022-09-30T05:46:07.848Z,16.27
2022-09-30T05:48:35.187Z,18.52
2022-09-30T05:51:02.439Z,15.25
2022-09-30T05:53:32.137Z,15.13
2022-09-30T05:55:59.666Z,17.42
2022-09-30T05:58:27.594Z,16.98
2022-09-30T06:00:54.964Z,14.73
2022-09-30T06:03:22.028Z,18.15
2022-09-30T06:05:49.158Z,38.95
2022-09-30T06:08:16.105Z,21.63
2022-09-30T06:10:44.746Z,22.08
2022-09-30T06:13:12.058Z,17.08
2022-09-30T06:15:41.385Z,20.95
2022-09-30T06:18:08.758Z,19.70
2022-09-30T06:20:36.734Z,19.40
2022-09-30T06:23:03.851Z,20.33
2022-09-30T06:25:31.406Z,23.40
2022-09-30T06:27:58.676Z,22.45
2022-09-30T06:30:25.605Z,22.20
2022-09-30T06:32:54.145Z,24.13
2022-09-30T06:35:24.060Z,21.48
2022-09-30T06:37:51.772Z,22.65
2022-09-30T06:40:21.266Z,22.70
2022-09-30T06:42:49.462Z,22.63
2022-09-30T06:45:30.191Z,22.67
2022-09-30T06:48:01.223Z,23.40
2022-09-30T06:50:30.902Z,26.23
2022-09-30T06:53:02.172Z,21.92
2022-09-30T06:55:30.250Z,21.08
2022-09-30T06:57:57.377Z,24.67
2022-09-30T07:00:25.444Z,21.58
2022-09-30T07:02:55.055Z,22.05
2022-09-30T07:05:22.007Z,20.35
2022-09-30T07:07:49.257Z,19.88
2022-09-30T07:10:16.482Z,20.48
2022-09-30T07:12:43.300Z,20.48
2022-09-30T07:15:13.560Z,20.05
2022-09-30T07:17:40.944Z,21.52
2022-09-30T07:20:08.394Z,24.65
2022-09-30T07:22:35.288Z,19.58
2022-09-30T07:25:03.893Z,21.50
2022-09-30T07:27:32.700Z,20.92
2022-09-30T07:32:47.911Z,18.85
2022-09-30T07:35:14.886Z,19.67
2022-09-30T07:37:41.788Z,19.95
2022-09-30T07:40:09.582Z,19.20
2022-09-30T07:42:46.052Z,18.98
2022-09-30T07:45:17.111Z,21.10
2022-09-30T07:47:44.121Z,19.52
2022-09-30T07:50:13.418Z,18.95
2022-09-30T07:52:40.420Z,19.85
2022-09-30T07:55:07.772Z,19.83
2022-09-30T07:57:34.660Z,20.30
2022-09-30T08:00:12.021Z,18.08
2022-09-30T08:02:48.638Z,17.73
2022-09-30T08:05:15.713Z,18.38
2022-09-30T08:07:42.526Z,18.58
2022-09-30T08:10:09.789Z,17.38
2022-09-30T08:12:37.391Z,18.45
2022-09-30T08:15:06.158Z,17.88
2022-09-30T08:17:33.153Z,16.40
2022-09-30T08:20:00.333Z,17.38
2022-09-30T08:22:28.243Z,19.15
2022-09-30T08:24:55.053Z,17.25
2022-09-30T08:27:22.382Z,17.40
2022-09-30T08:29:58.418Z,17.10
2022-09-30T08:32:30.907Z,19.35
2022-09-30T08:34:57.805Z,16.05
2022-09-30T08:37:24.640Z,15.20
2022-09-30T08:39:51.693Z,15.48
2022-09-30T08:43:04.040Z,15.65
2022-09-30T08:45:44.182Z,15.80
2022-09-30T08:48:39.337Z,13.77
2022-09-30T08:51:32.075Z,15.00
2022-09-30T08:54:02.555Z,19.52
2022-09-30T08:56:32.170Z,15.25
2022-09-30T08:59:07.253Z,16.58
2022-09-30T09:01:36.824Z,13.68
2022-09-30T09:04:05.931Z,17.35
2022-09-30T09:06:52.803Z,14.52
2022-09-30T09:09:46.879Z,14.82
2022-09-30T09:12:35.337Z,13.95
2022-09-30T09:15:37.893Z,17.77
2022-09-30T09:18:24.283Z,14.68
2022-09-30T09:20:55.962Z,13.65
2022-09-30T09:23:23.519Z,14.82
2022-09-30T09:25:53.151Z,15.55
2022-09-30T09:28:35.474Z,14.25
2022-09-30T09:31:03.452Z,16.48
2022-09-30T09:33:39.787Z,14.20
2022-09-30T09:36:34.093Z,19.25
2022-09-30T09:39:26.604Z,12.45
2022-09-30T09:42:42.179Z,15.57
2022-09-30T09:45:22.833Z,16.85
2022-09-30T09:47:57.974Z,15.30
2022-09-30T09:51:06.089Z,18.75
2022-09-30T09:53:58.145Z,15.80
2022-09-30T09:56:32.463Z,16.23
2022-09-30T09:59:05.845Z,14.32
2022-09-30T10:01:34.711Z,14.68
2022-09-30T10:04:15.916Z,14.23
2022-09-30T10:06:54.627Z,16.40
2022-09-30T10:09:36.049Z,14.35
2022-09-30T10:12:06.235Z,15.43
2022-09-30T10:14:48.201Z,15.93
2022-09-30T10:17:20.779Z,14.85
2022-09-30T10:19:51.400Z,15.52
2022-09-30T10:22:20.510Z,12.98
2022-09-30T10:24:47.314Z,16.63
2022-09-30T10:27:32.002Z,15.25
2022-09-30T10:29:59.127Z,14.07
2022-09-30T10:32:26.418Z,12.60
2022-09-30T10:35:18.449Z,14.65
2022-09-30T10:37:52.853Z,13.55
2022-09-30T10:40:28.756Z,12.95
2022-09-30T10:42:56.877Z,17.15
2022-09-30T10:45:33.288Z,12.88
2022-09-30T10:48:06.981Z,13.85
2022-09-30T10:50:33.968Z,18.98
2022-09-30T10:53:05.126Z,12.02
2022-09-30T10:55:35.025Z,14.57
2022-09-30T10:58:22.369Z,13.93
2022-09-30T11:00:55.253Z,13.85
2022-09-30T11:03:25.777Z,12.90
2022-09-30T11:05:52.641Z,13.63
2022-09-30T11:08:42.786Z,13.45
2022-09-30T11:11:14.314Z,16.35
2022-09-30T11:13:54.732Z,15.48
2022-09-30T11:16:30.355Z,15.35
2022-09-30T11:19:10.770Z,12.98
2022-09-30T11:21:42.683Z,14.55
2022-09-30T11:24:36.125Z,12.98
2022-09-30T11:27:15.534Z,12.45
2022-09-30T11:30:01.211Z,14.30
2022-09-30T11:32:50.305Z,13.60
2022-09-30T11:35:57.985Z,12.93
2022-09-30T11:38:52.922Z,12.00
2022-09-30T11:41:32.564Z,13.05
2022-09-30T11:44:21.998Z,11.80
2022-09-30T11:47:07.930Z,13.10
2022-09-30T11:50:16.739Z,11.60
2022-09-30T11:53:04.022Z,11.65
2022-09-30T11:55:59.335Z,11.20
2022-09-30T11:58:40.977Z,13.05
2022-09-30T12:01:46.662Z,12.05
2022-09-30T12:04:17.300Z,11.38
2022-09-30T12:06:50.924Z,12.82
2022-09-30T12:09:27.060Z,15.02
2022-09-30T12:11:58.347Z,13.43
2022-09-30T12:14:57.687Z,14.10
2022-09-30T12:17:32.618Z,14.38
2022-09-30T12:20:05.473Z,15.95
2022-09-30T12:22:41.440Z,15.50
2022-09-30T12:25:18.616Z,17.70
2022-09-30T12:27:49.700Z,13.50
2022-09-30T12:30:20.355Z,12.95
2022-09-30T12:33:11.852Z,13.10
2022-09-30T12:35:49.678Z,17.40
2022-09-30T12:38:25.876Z,16.65
2022-09-30T12:41:11.977Z,16.50
2022-09-30T12:43:54.574Z,16.25
2022-09-30T12:46:52.200Z,18.77
2022-09-30T12:49:23.637Z,16.40
2022-09-30T12:51:54.995Z,15.77
2022-09-30T12:54:28.147Z,16.85
2022-09-30T12:57:00.532Z,17.67
2022-09-30T12:59:30.553Z,15.38
2022-09-30T13:01:58.597Z,17.80
2022-09-30T13:04:39.673Z,21.80
2022-09-30T13:07:09.749Z,19.13
2022-09-30T13:09:56.260Z,16.25
2022-09-30T13:12:45.941Z,17.60
2022-09-30T13:15:45.793Z,16.38
2022-09-30T13:18:26.934Z,15.18
2022-09-30T13:20:56.955Z,14.63
2022-09-30T13:23:49.784Z,15.63
2022-09-30T13:26:22.434Z,16.98
2022-09-30T13:28:50.921Z,13.57
2022-09-30T13:31:22.958Z,15.45
2022-09-30T13:34:02.288Z,19.20
2022-09-30T13:36:44.387Z,18.08
2022-09-30T13:39:29.205Z,18.98
2022-09-30T13:42:05.081Z,16.00
2022-09-30T13:45:16.401Z,16.77
2022-09-30T13:47:51.878Z,15.93
2022-09-30T13:50:24.151Z,14.63
2022-09-30T13:52:54.507Z,16.83
2022-09-30T13:55:25.711Z,17.58
2022-09-30T13:58:01.921Z,17.60
2022-09-30T14:00:55.369Z,22.10
2022-09-30T14:03:53.455Z,16.30
2022-09-30T14:06:46.305Z,16.63
2022-09-30T14:09:39.573Z,16.80
2022-09-30T14:12:23.475Z,16.75
2022-09-30T14:15:31.810Z,15.80
2022-09-30T14:18:28.060Z,17.77
2022-09-30T14:21:16.494Z,18.52
2022-09-30T14:23:44.438Z,18.23
2022-09-30T14:26:11.604Z,19.33
2022-09-30T14:28:49.324Z,21.10
2022-09-30T14:31:16.453Z,18.13
2022-09-30T14:33:45.449Z,18.58
2022-09-30T14:36:15.378Z,19.55
2022-09-30T14:38:46.214Z,21.30
2022-09-30T14:41:17.694Z,19.35
2022-09-30T14:43:46.239Z,24.48
2022-09-30T14:46:47.144Z,21.48
2022-09-30T14:49:17.299Z,19.52
2022-09-30T14:51:47.122Z,17.42
2022-09-30T14:54:26.590Z,20.63
2022-09-30T14:56:56.546Z,17.90
2022-09-30T14:59:28.203Z,15.73
2022-09-30T15:02:02.989Z,17.80
2022-09-30T15:04:33.063Z,20.15
2022-09-30T15:07:03.598Z,17.48
2022-09-30T15:09:38.024Z,19.60
2022-09-30T15:12:13.036Z,18.70
2022-09-30T15:14:50.555Z,18.52
2022-09-30T15:17:29.375Z,21.75
2022-09-30T15:19:57.615Z,22.15
2022-09-30T15:22:27.212Z,20.77
2022-09-30T15:24:54.492Z,18.85
2022-09-30T15:27:26.002Z,19.92
2022-09-30T15:30:01.481Z,18.52
2022-09-30T15:32:34.091Z,17.38
2022-09-30T15:35:17.092Z,18.35
2022-09-30T15:37:44.288Z,19.40
2022-09-30T15:40:38.580Z,21.20
2022-09-30T15:43:07.828Z,18.90
2022-09-30T15:45:44.997Z,21.70
2022-09-30T15:48:26.718Z,17.02
2022-09-30T15:50:55.910Z,19.05
2022-09-30T15:53:31.474Z,21.08
2022-09-30T15:56:00.393Z,21.88
2022-09-30T15:58:32.637Z,24.05
2022-09-30T16:01:11.628Z,25.17
2022-09-30T16:03:38.641Z,23.70
2022-09-30T16:06:11.122Z,26.83
2022-09-30T16:08:50.171Z,22.75
2022-09-30T16:11:23.537Z,21.48
2022-09-30T16:13:50.694Z,19.50
2022-09-30T16:16:22.315Z,17.33
2022-09-30T16:18:50.281Z,20.10
2022-09-30T16:21:44.017Z,19.85
2022-09-30T16:24:36.977Z,20.58
2022-09-30T16:27:26.936Z,19.63
2022-09-30T16:29:54.230Z,18.48
2022-09-30T16:32:21.156Z,17.08
2022-09-30T16:34:48.021Z,16.90
2022-09-30T16:37:18.741Z,17.13
2022-09-30T16:39:45.649Z,16.77
2022-09-30T16:42:14.450Z,18.45
2022-09-30T16:44:44.428Z,16.88
2022-09-30T16:47:19.314Z,16.42
2022-09-30T16:49:47.146Z,17.92
2022-09-30T16:52:14.454Z,19.48
2022-09-30T16:54:42.723Z,17.08
2022-09-30T16:57:12.679Z,14.63
2022-09-30T16:59:39.520Z,14.30
2022-09-30T17:02:07.372Z,17.55
2022-09-30T17:04:38.659Z,14.55
2022-09-30T17:07:05.771Z,15.43
2022-09-30T17:09:32.826Z,15.82
2022-09-30T17:12:01.185Z,15.05
2022-09-30T17:14:29.825Z,15.55
2022-09-30T17:16:57.210Z,18.60
2022-09-30T17:19:24.783Z,17.42
2022-09-30T17:21:51.724Z,20.23
2022-09-30T17:24:20.881Z,18.90
2022-09-30T17:26:48.155Z,19.15
2022-09-30T17:29:33.038Z,18.63
2022-09-30T17:32:00.894Z,17.50
2022-09-30T17:34:28.145Z,20.73
2022-09-30T17:36:56.236Z,19.95
2022-09-30T17:39:25.931Z,18.30
2022-09-30T17:42:11.356Z,19.15
2022-09-30T17:44:39.187Z,20.65
2022-09-30T17:47:06.073Z,22.30
2022-09-30T17:49:34.351Z,20.27
2022-09-30T17:52:02.156Z,20.70
2022-09-30T17:54:29.336Z,23.98
2022-09-30T17:56:57.255Z,24.40
2022-09-30T17:59:26.845Z,20.77
2022-09-30T18:01:56.400Z,20.20
2022-09-30T18:04:26.123Z,21.63
2022-09-30T18:06:54.282Z,20.55
2022-09-30T18:09:21.960Z,19.88
2022-09-30T18:11:49.058Z,19.73
2022-09-30T18:14:16.216Z,17.70
2022-09-30T18:16:43.199Z,17.50
2022-09-30T18:19:10.148Z,19.42
2022-09-30T18:21:38.057Z,17.77
2022-09-30T18:24:05.790Z,23.00
2022-09-30T18:26:35.640Z,18.63
2022-09-30T18:29:04.255Z,20.75
2022-09-30T18:31:38.560Z,19.45
2022-09-30T18:34:06.395Z,22.02
2022-09-30T18:36:33.353Z,21.63
2022-09-30T18:39:02.159Z,21.75
2022-09-30T18:41:31.862Z,19.70
2022-09-30T18:44:02.983Z,21.27
2022-09-30T18:46:31.467Z,19.60
2022-09-30T18:48:58.344Z,22.60
2022-09-30T18:51:25.396Z,22.70
2022-09-30T18:53:58.118Z,18.70
2022-09-30T18:56:31.796Z,19.35
2022-09-30T18:59:04.643Z,20.60
2022-09-30T19:01:33.797Z,17.95
2022-09-30T19:04:03.051Z,17.92
2022-09-30T19:06:29.884Z,16.67
2022-09-30T19:08:56.889Z,15.57
2022-09-30T19:11:25.049Z,18.15
2022-09-30T19:13:52.692Z,18.33
2022-09-30T19:16:19.893Z,18.10
2022-09-30T19:18:47.004Z,17.02
2022-09-30T19:21:16.166Z,16.05
2022-09-30T19:23:43.006Z,18.33
2022-09-30T19:26:10.888Z,13.68
2022-09-30T19:28:37.836Z,18.70
2022-09-30T19:31:16.966Z,15.63
2022-09-30T19:33:55.481Z,14.20
2022-09-30T19:36:25.474Z,14.65
2022-09-30T19:39:05.270Z,15.70
2022-09-30T19:41:35.738Z,18.42
2022-09-30T19:44:03.254Z,18.17
2022-09-30T19:46:30.191Z,17.85
2022-09-30T19:48:57.063Z,23.58
2022-09-30T19:51:24.272Z,18.95
2022-09-30T19:54:02.549Z,20.17
2022-09-30T19:56:33.078Z,20.67
2022-09-30T19:59:00.204Z,18.85
2022-09-30T20:01:28.550Z,19.88
2022-09-30T20:03:57.569Z,19.23
2022-09-30T20:06:24.413Z,17.98
2022-09-30T20:08:53.146Z,19.05
2022-09-30T20:11:21.992Z,18.35
2022-09-30T20:13:50.276Z,18.55
2022-09-30T20:16:17.459Z,16.45
2022-09-30T20:18:44.510Z,16.48
2022-09-30T20:21:15.935Z,16.27
2022-09-30T20:23:44.358Z,16.70
2022-09-30T20:26:15.928Z,16.80
2022-09-30T20:28:43.307Z,19.25
2022-09-30T20:31:14.609Z,16.25
2022-09-30T20:33:42.377Z,18.70
2022-09-30T20:36:10.976Z,16.52
2022-09-30T20:38:38.982Z,21.35
2022-09-30T20:41:06.456Z,23.23
2022-09-30T20:43:33.665Z,24.10
2022-09-30T20:46:02.289Z,23.70
2022-09-30T20:48:34.615Z,26.17
2022-09-30T20:51:10.112Z,31.48
2022-09-30T20:53:39.663Z,28.35
2022-09-30T20:56:08.084Z,30.15
2022-09-30T20:58:35.679Z,30.52
2022-09-30T21:01:18.541Z,35.42
2022-09-30T21:03:52.638Z,33.67
2022-09-30T21:06:21.848Z,38.80
2022-09-30T21:08:50.814Z,39.15
2022-09-30T21:11:18.628Z,46.90
2022-09-30T21:13:47.417Z,44.05
2022-09-30T21:16:16.343Z,45.05
2022-09-30T21:18:44.293Z,55.17
2022-09-30T21:21:13.419Z,44.45
2022-09-30T21:23:40.856Z,48.53
2022-09-30T21:26:12.905Z,49.60
2022-09-30T21:28:40.827Z,47.42
2022-09-30T21:31:24.826Z,45.88
2022-09-30T21:33:53.572Z,47.22
2022-09-30T21:36:21.353Z,41.90
2022-09-30T21:38:49.719Z,43.13
2022-09-30T21:41:17.654Z,41.97
2022-09-30T21:43:44.533Z,49.55
2022-09-30T21:46:14.691Z,50.55
2022-09-30T21:48:42.579Z,42.13
2022-09-30T21:51:10.143Z,43.70
2022-09-30T21:53:38.966Z,48.13
2022-09-30T21:56:06.927Z,41.13
2022-09-30T21:58:34.078Z,44.40
2022-09-30T22:01:03.708Z,43.67
2022-09-30T22:03:36.065Z,45.70
2022-09-30T22:06:07.194Z,43.15
2022-09-30T22:08:36.377Z,46.95
2022-09-30T22:11:08.161Z,45.22
2022-09-30T22:13:36.345Z,44.42
2022-09-30T22:16:07.120Z,47.47
2022-09-30T22:18:34.230Z,43.28
2022-09-30T22:21:10.033Z,44.28
2022-09-30T22:23:36.915Z,43.92
2022-09-30T22:26:12.187Z,43.72
2022-09-30T22:28:39.345Z,46.95
2022-09-30T22:31:20.417Z,36.80
2022-09-30T22:34:07.611Z,42.63
2022-09-30T22:36:54.027Z,39.75
2022-09-30T22:39:21.795Z,39.55
2022-09-30T22:41:50.390Z,42.72
2022-09-30T22:44:17.771Z,35.63
2022-09-30T22:46:45.042Z,37.00
2022-09-30T22:49:12.024Z,36.00
2022-09-30T22:51:38.979Z,33.80
2022-09-30T22:54:05.903Z,32.97
2022-09-30T22:56:33.109Z,31.02
2022-09-30T22:59:00.591Z,32.38
2022-09-30T23:01:29.421Z,29.27
2022-09-30T23:03:56.694Z,29.45
2022-09-30T23:06:24.650Z,28.65
2022-09-30T23:08:52.538Z,23.98
2022-09-30T23:11:21.517Z,21.30
2022-09-30T23:13:48.285Z,24.52
2022-09-30T23:16:16.205Z,24.98
2022-09-30T23:18:46.327Z,24.92
2022-09-30T23:21:16.004Z,25.00
2022-09-30T23:23:43.618Z,23.95
2022-09-30T23:26:16.386Z,23.17
2022-09-30T23:28:43.439Z,21.35
2022-09-30T23:31:13.035Z,20.45
2022-09-30T23:33:46.957Z,20.27
2022-09-30T23:36:15.982Z,21.08
2022-09-30T23:38:43.114Z,22.77
2022-09-30T23:41:10.051Z,19.73
2022-09-30T23:43:37.202Z,16.92
2022-09-30T23:46:06.363Z,16.75
2022-09-30T23:48:34.694Z,18.42
2022-09-30T23:51:01.528Z,17.25
2022-09-30T23:53:28.820Z,17.35
2022-09-30T23:56:02.891Z,17.10
2022-09-30T23:58:31.144Z,16.02
